Time;durP1;ratioP1;P1;durP2;ratioP2;P2;SDS_P1;SDS_P2;PMS_P1;PMS_P2;Temp;Humidity;BMP_temperature;BMP_pressure;BME280_temperature;BME280_humidity;BME280_pressure;Samples;Min_cycle;Max_cycle;Signal;HPM_P1;HPM_P2
2022/06/30 00:00:24;;;;;;;2.43;2.23;;;;;;;19.80;100.00;101377.09;5036576;28;20218;-75
2022/06/30 00:02:49;;;;;;;2.33;2.20;;;;;;;19.67;100.00;101355.63;5034616;28;20233;-75
2022/06/30 00:05:15;;;;;;;2.17;2.00;;;;;;;19.76;100.00;101385.97;5038965;28;20620;-75
2022/06/30 00:07:42;;;;;;;2.43;2.23;;;;;;;19.40;100.00;101301.81;5037130;28;20207;-75
2022/06/30 00:10:10;;;;;;;2.47;2.03;;;;;;;19.85;100.00;101369.00;5035521;28;20274;-75
2022/06/30 00:12:35;;;;;;;2.17;1.97;;;;;;;19.80;100.00;101371.63;5033346;28;20541;-75
2022/06/30 00:15:01;;;;;;;2.00;1.90;;;;;;;19.31;100.00;101291.59;5034884;28;20472;-75
2022/06/30 00:17:26;;;;;;;2.20;2.00;;;;;;;19.41;100.00;101322.53;5034313;28;20310;-75
2022/06/30 00:19:51;;;;;;;2.60;2.00;;;;;;;19.69;100.00;101358.13;5033475;28;20200;-75
2022/06/30 00:22:17;;;;;;;2.67;2.47;;;;;;;19.63;100.00;101349.81;5037147;28;20207;-75
2022/06/30 00:24:42;;;;;;;2.27;2.10;;;;;;;19.67;100.00;101374.66;5034266;28;20669;-74
2022/06/30 00:27:08;;;;;;;1.43;1.33;;;;;;;19.38;100.00;101324.91;5035736;28;20279;-74
2022/06/30 00:29:33;;;;;;;2.30;2.10;;;;;;;19.59;100.00;101372.34;5033592;28;20175;-75
2022/06/30 00:31:59;;;;;;;6.10;2.23;;;;;;;19.20;100.00;101312.34;5026730;28;20685;-75
2022/06/30 00:34:24;;;;;;;2.70;2.30;;;;;;;19.19;100.00;101322.41;5038753;28;20298;-75
2022/06/30 00:36:50;;;;;;;2.10;2.00;;;;;;;19.49;100.00;101367.53;5032283;28;20222;-75
2022/06/30 00:39:15;;;;;;;2.13;1.93;;;;;;;18.95;100.00;101282.81;5035540;28;20188;-75
2022/06/30 00:41:41;;;;;;;2.37;2.17;;;;;;;19.13;100.00;101307.06;5032993;28;20601;-75
2022/06/30 00:44:07;;;;;;;4.00;2.20;;;;;;;19.55;100.00;101365.72;5052223;28;20759;-75
2022/06/30 00:46:34;;;;;;;2.10;1.90;;;;;;;19.24;100.00;101327.13;5033980;28;20426;-75
2022/06/30 00:49:00;;;;;;;2.47;2.23;;;;;;;19.36;100.00;101374.13;5033617;28;20533;-75
2022/06/30 00:51:25;;;;;;;2.27;2.13;;;;;;;19.10;100.00;101306.75;5037613;28;20525;-75
2022/06/30 00:53:54;;;;;;;2.00;1.90;;;;;;;18.84;100.00;101289.97;5032141;28;20684;-75
2022/06/30 00:56:21;;;;;;;2.47;2.27;;;;;;;19.45;100.00;101373.72;5036788;28;20222;-75
2022/06/30 00:58:48;;;;;;;2.10;2.00;;;;;;;18.79;100.00;101265.41;5034407;28;20443;-75
2022/06/30 01:01:17;;;;;;;2.00;1.90;;;;;;;19.24;100.00;101383.38;5034242;28;20441;-75
2022/06/30 01:03:43;;;;;;;2.53;2.03;;;;;;;19.10;100.00;101334.75;5032804;28;20520;-75
2022/06/30 01:06:10;;;;;;;2.30;2.10;;;;;;;19.41;100.00;101373.38;5030974;28;20441;-74
2022/06/30 01:08:36;;;;;;;2.50;2.30;;;;;;;19.34;100.00;101357.22;5033054;28;20548;-75
2022/06/30 01:13:47;;;;;;;2.63;2.43;;;;;;;19.05;100.00;101352.88;5034784;28;20485;-74
2022/06/30 01:16:13;;;;;;;2.23;2.10;;;;;;;19.09;100.00;101359.47;5040341;28;20950;-74
2022/06/30 01:18:38;;;;;;;2.43;2.10;;;;;;;19.26;100.00;101367.66;5032211;28;20237;-74
2022/06/30 01:21:04;;;;;;;2.27;2.07;;;;;;;19.20;100.00;101372.19;5033204;28;20203;-75
2022/06/30 01:23:29;;;;;;;1.97;1.87;;;;;;;18.79;100.00;101308.88;5035794;28;20191;-75
2022/06/30 01:25:55;;;;;;;2.50;2.10;;;;;;;19.23;100.00;101371.69;5029249;28;20644;-75
2022/06/30 01:28:20;;;;;;;2.73;2.53;;;;;;;18.71;100.00;101266.56;5034348;28;20191;-75
2022/06/30 01:30:46;;;;;;;2.30;2.10;;;;;;;19.11;100.00;101341.84;5030338;28;20201;-75
2022/06/30 01:33:12;;;;;;;2.23;2.13;;;;;;;19.19;100.00;101359.66;5034855;28;20196;-74
2022/06/30 01:35:38;;;;;;;4.17;2.30;;;;;;;19.16;100.00;101360.97;5034981;28;20223;-74
2022/06/30 01:38:04;;;;;;;2.67;2.47;;;;;;;19.15;100.00;101364.78;5032754;28;21212;-75
2022/06/30 01:40:33;;;;;;;2.47;2.27;;;;;;;19.17;100.00;101356.34;5035851;28;20192;-75
2022/06/30 01:42:59;;;;;;;3.03;2.00;;;;;;;19.11;100.00;101350.00;5046365;28;20195;-75
2022/06/30 01:45:25;;;;;;;2.63;2.43;;;;;;;19.17;100.00;101346.28;5033652;28;20465;-75
2022/06/30 01:47:51;;;;;;;2.83;2.53;;;;;;;18.90;100.00;101320.78;5034102;28;20799;-75
2022/06/30 01:50:19;;;;;;;2.20;2.00;;;;;;;19.03;100.00;101334.06;5034138;28;20198;-75
2022/06/30 01:52:45;;;;;;;1.83;1.73;;;;;;;18.73;100.00;101278.06;5030657;28;20482;-75
2022/06/30 01:55:11;;;;;;;2.17;2.00;;;;;;;18.42;100.00;101230.41;5032035;28;20566;-75
2022/06/30 01:57:37;;;;;;;2.27;2.07;;;;;;;18.71;100.00;101288.31;5032412;28;20273;-75
2022/06/30 02:00:05;;;;;;;2.07;1.93;;;;;;;19.07;100.00;101340.69;5033223;28;20274;-74
2022/06/30 02:02:30;;;;;;;2.90;2.17;;;;;;;18.89;100.00;101340.84;5033201;28;20437;-74
2022/06/30 02:04:56;;;;;;;3.10;2.03;;;;;;;18.33;100.00;101267.16;5033096;28;20550;-75
2022/06/30 02:07:23;;;;;;;2.10;1.80;;;;;;;18.80;100.00;101345.84;5036154;28;20188;-75
2022/06/30 02:09:52;;;;;;;1.97;1.80;;;;;;;18.82;100.00;101341.00;5031046;28;20202;-75
2022/06/30 02:15:03;;;;;;;2.17;1.97;;;;;;;18.82;100.00;101341.00;5029557;28;20461;-74
2022/06/30 02:17:29;;;;;;;2.93;2.10;;;;;;;18.83;100.00;101341.81;5033046;28;20474;-75
2022/06/30 02:19:54;;;;;;;1.87;1.77;;;;;;;18.77;100.00;101334.63;5032838;28;20450;-74
2022/06/30 02:22:20;;;;;;;2.13;1.93;;;;;;;18.29;100.00;101264.13;5034089;28;20191;-74
2022/06/30 02:24:45;;;;;;;2.30;1.80;;;;;;;18.40;100.00;101308.63;5034634;28;20204;-74
2022/06/30 02:27:11;;;;;;;2.10;1.90;;;;;;;18.39;100.00;101274.34;5031016;28;22589;-75
2022/06/30 02:29:37;;;;;;;2.20;1.87;;;;;;;18.68;100.00;101345.84;5031359;28;20188;-75
2022/06/30 02:32:03;;;;;;;1.70;1.60;;;;;;;18.80;100.00;101336.88;5030088;28;20195;-75
2022/06/30 02:34:28;;;;;;;1.80;1.70;;;;;;;18.80;100.00;101331.44;5035685;28;20219;-76
2022/06/30 02:36:57;;;;;;;1.60;1.50;;;;;;;18.51;100.00;101309.63;5032618;28;20499;-74
2022/06/30 02:39:22;;;;;;;1.50;1.40;;;;;;;18.65;100.00;101331.94;5034425;28;20689;-74
2022/06/30 02:41:48;;;;;;;3.20;2.17;;;;;;;18.67;100.00;101335.25;5034224;28;20534;-73
2022/06/30 02:44:13;;;;;;;1.77;1.67;;;;;;;18.09;100.00;101241.97;5035837;28;20215;-74
2022/06/30 02:46:39;;;;;;;1.80;1.70;;;;;;;18.37;100.00;101268.38;5032195;28;20183;-73
2022/06/30 02:49:04;;;;;;;2.13;1.93;;;;;;;18.60;100.00;101285.63;5034721;28;20192;-73
2022/06/30 02:51:30;;;;;;;2.00;1.80;;;;;;;18.27;100.00;101228.22;5034167;28;20198;-73
2022/06/30 02:53:55;;;;;;;4.67;2.50;;;;;;;18.34;100.00;101238.97;5031772;28;20212;-73
2022/06/30 02:56:21;;;;;;;1.80;1.70;;;;;;;18.46;100.00;101285.09;5033995;28;20863;-73
2022/06/30 02:58:47;;;;;;;2.40;2.07;;;;;;;18.83;100.00;101311.94;5034712;28;20226;-73
2022/06/30 03:01:13;;;;;;;1.80;1.67;;;;;;;18.23;100.00;101209.97;5035958;28;20214;-73
2022/06/30 03:03:38;;;;;;;3.77;1.63;;;;;;;18.73;100.00;101307.94;5034334;28;21133;-74
2022/06/30 03:06:04;;;;;;;3.33;1.67;;;;;;;18.62;100.00;101267.22;5039277;28;20195;-74
2022/06/30 03:08:29;;;;;;;2.20;1.47;;;;;;;18.80;100.00;101294.22;5040746;28;20243;-73
2022/06/30 03:10:55;;;;;;;1.97;1.77;;;;;;;18.80;100.00;101294.22;5037900;28;20188;-74
2022/06/30 03:13:20;;;;;;;2.50;1.70;;;;;;;18.83;100.00;101291.00;5036411;28;20530;-74
2022/06/30 03:15:47;;;;;;;1.70;1.60;;;;;;;18.92;100.00;101302.34;5038318;28;20241;-74
2022/06/30 03:18:12;;;;;;;2.00;1.50;;;;;;;18.72;100.00;101273.66;5035166;28;20204;-73
2022/06/30 03:20:38;;;;;;;2.43;1.40;;;;;;;18.52;100.00;101246.94;5035081;28;20446;-73
2022/06/30 03:23:03;;;;;;;1.93;1.23;;;;;;;18.94;100.00;101302.91;5036299;28;20183;-73
2022/06/30 03:25:29;;;;;;;2.20;2.00;;;;;;;18.76;100.00;101268.59;5038035;28;20688;-74
2022/06/30 03:27:54;;;;;;;1.60;1.50;;;;;;;19.01;100.00;101305.50;5037230;28;20238;-74
2022/06/30 03:30:19;;;;;;;2.20;1.60;;;;;;;19.01;100.00;101292.72;5037721;28;20188;-73
2022/06/30 03:32:45;;;;;;;1.53;1.43;;;;;;;18.91;100.00;101287.09;5038095;28;20261;-74
2022/06/30 03:35:10;;;;;;;1.50;1.40;;;;;;;18.92;100.00;101310.50;5037294;28;20212;-73
2022/06/30 03:37:36;;;;;;;1.70;1.50;;;;;;;18.64;100.00;101256.94;5036346;28;20854;-73
2022/06/30 03:40:01;;;;;;;1.67;1.40;;;;;;;18.97;100.00;101305.94;5030938;28;20268;-74
2022/06/30 03:42:27;;;;;;;1.60;1.43;;;;;;;18.91;100.00;101303.41;5037018;28;20187;-73
2022/06/30 03:44:52;;;;;;;1.50;1.40;;;;;;;18.85;100.00;101305.19;5034092;28;20782;-74
2022/06/30 03:47:18;;;;;;;1.67;1.53;;;;;;;18.80;100.00;101286.06;5034473;28;20273;-74
2022/06/30 03:49:43;;;;;;;4.87;1.50;;;;;;;18.79;100.00;101294.47;5033142;28;20205;-73
2022/06/30 03:52:08;;;;;;;2.00;1.70;;;;;;;18.74;100.00;101287.03;5031452;28;20185;-73
2022/06/30 03:54:34;;;;;;;1.40;1.30;;;;;;;18.69;100.00;101255.13;5035372;28;20215;-74
2022/06/30 03:56:59;;;;;;;4.37;1.67;;;;;;;18.66;100.00;101252.91;5035361;28;20216;-75
2022/06/30 03:59:25;;;;;;;1.23;1.10;;;;;;;18.54;100.00;101268.41;5036389;28;20195;-75
2022/06/30 04:01:50;;;;;;;1.90;1.30;;;;;;;18.79;100.00;101299.91;5033243;28;20730;-75
2022/06/30 04:04:16;;;;;;;1.60;1.47;;;;;;;18.68;100.00;101288.78;5035367;28;20217;-75
2022/06/30 04:06:41;;;;;;;5.33;1.80;;;;;;;18.84;100.00;101302.72;5034861;28;20180;-75
2022/06/30 04:09:07;;;;;;;1.80;1.70;;;;;;;18.38;100.00;101239.31;5034576;28;20661;-74
2022/06/30 04:11:32;;;;;;;2.00;1.20;;;;;;;18.78;100.00;101292.84;5032709;28;20175;-75
2022/06/30 04:13:58;;;;;;;1.97;1.37;;;;;;;18.74;100.00;101276.97;5035851;28;20607;-75
2022/06/30 04:16:23;;;;;;;1.80;1.70;;;;;;;18.70;100.00;101280.41;5030731;28;20203;-75
2022/06/30 04:18:48;;;;;;;1.60;1.47;;;;;;;18.14;100.00;101190.50;5032966;28;20833;-74
2022/06/30 04:21:16;;;;;;;1.70;1.60;;;;;;;18.84;100.00;101287.25;5037953;28;20184;-75
2022/06/30 04:23:42;;;;;;;2.47;2.07;;;;;;;18.74;100.00;101278.88;5037594;28;20200;-74
2022/06/30 04:26:08;;;;;;;2.70;1.67;;;;;;;18.74;100.00;101282.41;5031697;28;20952;-75
2022/06/30 04:28:33;;;;;;;1.87;1.73;;;;;;;18.50;100.00;101238.19;5036333;28;20530;-76
2022/06/30 04:33:43;;;;;;;1.80;1.60;;;;;;;18.16;100.00;101182.94;5031696;28;20595;-75
2022/06/30 04:36:08;;;;;;;3.80;1.60;;;;;;;18.89;100.00;101287.34;5023356;28;20470;-75
2022/06/30 04:38:33;;;;;;;2.20;1.67;;;;;;;18.71;100.00;101287.47;5030080;28;20267;-75
2022/06/30 04:43:43;;;;;;;4.50;1.30;;;;;;;18.67;100.00;101270.03;5034227;28;20260;-75
2022/06/30 04:46:08;;;;;;;1.50;1.40;;;;;;;18.61;100.00;101222.91;5041769;28;20430;-75
2022/06/30 04:48:34;;;;;;;2.27;1.40;;;;;;;18.49;100.00;101246.59;5040564;28;20183;-75
2022/06/30 04:50:59;;;;;;;3.50;1.70;;;;;;;18.82;100.00;101296.69;5037235;28;20176;-74
2022/06/30 04:53:25;;;;;;;1.33;1.20;;;;;;;18.78;100.00;101241.19;5040489;28;20263;-74
2022/06/30 04:55:51;;;;;;;1.40;1.30;;;;;;;19.23;100.00;101284.66;5040700;28;20216;-74
2022/06/30 04:58:17;;;;;;;2.50;1.63;;;;;;;19.09;100.00;101264.28;5040748;28;20259;-74
2022/06/30 05:00:42;;;;;;;3.07;1.50;;;;;;;19.35;100.00;101284.59;5038538;28;20494;-75
2022/06/30 05:03:07;;;;;;;1.20;1.10;;;;;;;19.22;100.00;101261.28;5036755;28;20184;-74
2022/06/30 05:05:33;;;;;;;2.23;1.40;;;;;;;19.00;100.00;101225.81;5041951;28;20200;-74
2022/06/30 05:07:58;;;;;;;4.40;1.70;;;;;;;18.90;100.00;101247.41;5040705;28;20590;-74
2022/06/30 05:10:24;;;;;;;2.03;1.80;;;;;;;18.82;100.00;101205.13;5039829;28;20176;-74
2022/06/30 05:12:49;;;;;;;2.00;1.67;;;;;;;18.94;100.00;101251.25;5040915;28;20267;-74
2022/06/30 05:15:15;;;;;;;1.50;1.40;;;;;;;19.15;100.00;101271.47;5040934;28;20211;-75
2022/06/30 05:17:40;;;;;;;2.87;1.73;;;;;;;19.06;100.00;101240.31;5040060;28;20572;-74
2022/06/30 05:20:06;;;;;;;1.60;1.50;;;;;;;19.08;100.00;101257.22;5037958;28;20274;-75
2022/06/30 05:22:31;;;;;;;2.10;1.33;;;;;;;19.09;100.00;101281.47;5040196;28;20628;-74
2022/06/30 05:27:45;;;;;;;2.83;1.23;;;;;;;19.30;100.00;101270.94;5038557;28;20183;-74
2022/06/30 05:30:10;;;;;;;1.60;1.50;;;;;;;19.14;100.00;101231.75;5040069;28;20414;-74
2022/06/30 05:32:37;;;;;;;2.13;1.40;;;;;;;19.26;100.00;101262.41;5040154;28;20434;-74
2022/06/30 05:35:03;;;;;;;1.60;1.50;;;;;;;19.38;100.00;101255.03;5040409;28;20207;-74
2022/06/30 05:37:29;;;;;;;1.40;1.30;;;;;;;19.10;100.00;101198.00;5039106;28;20462;-74
2022/06/30 05:39:54;;;;;;;1.40;1.30;;;;;;;19.58;100.00;101243.63;5039281;28;21487;-74
2022/06/30 05:42:19;;;;;;;2.27;1.70;;;;;;;19.48;100.00;101232.59;5039360;28;20729;-75
2022/06/30 05:44:45;;;;;;;1.43;1.33;;;;;;;19.20;100.00;101165.50;5040828;28;20203;-74
2022/06/30 05:47:11;;;;;;;1.57;1.47;;;;;;;19.68;100.00;101240.28;5041468;28;20184;-75
2022/06/30 05:49:37;;;;;;;2.57;2.07;;;;;;;19.29;100.00;101180.34;5039393;28;20779;-75
2022/06/30 05:52:03;;;;;;;1.30;1.20;;;;;;;19.54;100.00;101212.53;5040458;28;20653;-74
2022/06/30 05:54:28;;;;;;;2.30;1.80;;;;;;;19.74;100.00;101241.16;5040479;28;20465;-75
2022/06/30 05:56:54;;;;;;;2.70;1.90;;;;;;;19.63;100.00;101211.03;5039561;28;20458;-74
2022/06/30 05:59:20;;;;;;;4.00;1.63;;;;;;;19.43;100.00;101186.25;5039802;28;20267;-75
2022/06/30 06:01:45;;;;;;;2.80;1.60;;;;;;;19.42;100.00;101162.88;5036824;28;20211;-75
2022/06/30 06:04:10;;;;;;;3.10;1.40;;;;;;;19.97;100.00;101243.69;5040440;28;20229;-74
2022/06/30 06:06:36;;;;;;;2.10;1.47;;;;;;;19.95;100.00;101229.47;5039631;28;20179;-75
2022/06/30 06:09:02;;;;;;;2.30;1.33;;;;;;;19.89;100.00;101216.06;5040204;28;20187;-75
2022/06/30 06:11:28;;;;;;;1.40;1.30;;;;;;;19.95;100.00;101221.31;5039686;28;20179;-74
2022/06/30 06:13:53;;;;;;;1.47;1.33;;;;;;;19.98;100.00;101225.44;5039031;28;20197;-75
2022/06/30 06:16:18;;;;;;;1.30;1.20;;;;;;;19.96;100.00;101201.19;5039379;28;20876;-75
2022/06/30 06:18:44;;;;;;;1.97;1.73;;;;;;;20.23;100.00;101236.66;5040002;28;20196;-75
2022/06/30 06:21:09;;;;;;;1.80;1.70;;;;;;;20.15;100.00;101203.59;5040716;28;20179;-75
2022/06/30 06:23:35;;;;;;;2.30;1.53;;;;;;;20.44;100.00;101248.63;5039251;28;20188;-74
2022/06/30 06:26:00;;;;;;;1.37;1.27;;;;;;;20.43;100.00;101236.09;5037806;28;20270;-74
2022/06/30 06:31:09;;;;;;;1.50;1.40;;;;;;;20.33;100.00;101219.59;5038197;28;20259;-75
2022/06/30 06:33:35;;;;;;;2.20;1.70;;;;;;;20.54;100.00;101235.16;5042788;28;20513;-75
2022/06/30 06:36:02;;;;;;;1.23;1.13;;;;;;;20.54;100.00;101232.44;5042511;28;20195;-74
2022/06/30 06:38:28;;;;;;;1.93;1.50;;;;;;;20.52;100.00;101203.75;5044710;28;20240;-74
2022/06/30 06:40:53;;;;;;;1.33;1.20;;;;;;;20.76;100.00;101240.53;5043406;28;20426;-75
2022/06/30 06:43:18;;;;;;;1.87;1.27;;;;;;;20.50;100.00;101184.09;5041884;28;20275;-74
2022/06/30 06:45:44;;;;;;;1.53;1.37;;;;;;;20.88;100.00;101232.22;5043454;28;20235;-74
2022/06/30 06:48:09;;;;;;;2.13;1.63;;;;;;;20.86;100.00;101233.53;5042483;28;20558;-74
2022/06/30 06:50:35;;;;;;;5.33;1.67;;;;;;;20.97;100.00;101227.97;5044205;28;20183;-74
2022/06/30 06:53:00;;;;;;;1.47;1.23;;;;;;;21.01;100.00;101228.25;5040213;28;20183;-75
2022/06/30 06:55:25;;;;;;;1.47;1.30;;;;;;;20.83;100.00;101183.13;5043481;28;20195;-74
2022/06/30 06:57:51;;;;;;;1.53;1.43;;;;;;;21.03;100.00;101201.56;5043917;28;20615;-74
2022/06/30 07:00:17;;;;;;;2.37;1.40;;;;;;;21.25;100.00;101217.81;5042212;28;20177;-74
2022/06/30 07:02:43;;;;;;;1.77;1.47;;;;;;;20.89;100.00;101159.44;5041242;28;20571;-75
2022/06/30 07:05:09;;;;;;;1.30;1.20;;;;;;;20.87;100.00;101146.06;5042506;28;20442;-75
2022/06/30 07:07:35;;;;;;;1.57;1.17;;;;;;;21.41;100.00;101227.81;5042598;28;20655;-75
2022/06/30 07:10:02;;;;;;;6.80;1.60;;;;;;;21.35;100.00;101212.44;5041501;28;20911;-74
2022/06/30 07:12:27;;;;;;;1.30;1.20;;;;;;;21.12;100.00;101169.19;5043870;28;20429;-75
2022/06/30 07:14:52;;;;;;;2.80;1.57;;;;;;;21.33;100.00;101176.41;5042759;28;20447;-74
2022/06/30 07:17:19;;;;;;;1.67;1.57;;;;;;;21.38;100.00;101183.84;5042659;28;20211;-74
2022/06/30 07:19:45;;;;;;;2.83;1.40;;;;;;;21.71;100.00;101214.63;5044757;28;20184;-74
2022/06/30 07:22:11;;;;;;;1.70;1.40;;;;;;;21.51;100.00;101191.56;5041503;28;20465;-74
2022/06/30 07:24:36;;;;;;;2.40;2.00;;;;;;;21.76;100.00;101220.94;5042589;28;20204;-74
2022/06/30 07:27:02;;;;;;;1.70;1.33;;;;;;;21.77;100.00;101228.03;5042738;28;20208;-74
2022/06/30 07:29:27;;;;;;;1.37;1.27;;;;;;;21.71;100.00;101215.44;5042664;28;20196;-74
2022/06/30 07:31:53;;;;;;;2.10;1.70;;;;;;;21.71;100.00;101218.16;5042868;28;20185;-75
2022/06/30 07:34:19;;;;;;;1.67;1.40;;;;;;;21.71;100.00;101211.88;5042638;28;20211;-74
2022/06/30 07:36:45;;;;;;;1.73;1.60;;;;;;;21.80;100.00;101226.69;5043277;28;20521;-74
2022/06/30 07:39:10;;;;;;;1.60;1.50;;;;;;;21.78;100.00;101224.19;5040580;28;20195;-75
2022/06/30 07:41:36;;;;;;;2.70;1.73;;;;;;;21.73;100.00;101191.44;5042582;28;20191;-73
2022/06/30 07:44:01;;;;;;;2.27;2.07;;;;;;;21.72;100.00;101189.75;5041355;28;20204;-73
2022/06/30 07:46:27;;;;;;;2.93;1.77;;;;;;;21.62;100.00;101160.50;5045075;28;20267;-74
2022/06/30 07:48:53;;;;;;;1.60;1.50;;;;;;;22.10;100.00;101218.66;5043130;28;20184;-74
2022/06/30 07:51:20;;;;;;;10.23;2.30;;;;;;;22.29;100.00;101227.22;5042068;28;20418;-74
2022/06/30 07:53:46;;;;;;;2.60;1.90;;;;;;;22.42;100.00;101230.53;5043667;28;20578;-74
2022/06/30 07:56:11;;;;;;;2.03;1.93;;;;;;;22.46;100.00;101226.19;5043116;28;20453;-74
2022/06/30 07:58:36;;;;;;;2.17;1.97;;;;;;;22.54;100.00;101229.22;5041699;28;20419;-75
2022/06/30 08:01:02;;;;;;;2.40;2.20;;;;;;;22.44;100.00;101201.84;5042417;28;20178;-75
2022/06/30 08:03:28;;;;;;;2.73;1.70;;;;;;;22.37;100.00;101184.88;5041822;28;20764;-75
2022/06/30 08:05:53;;;;;;;2.00;1.80;;;;;;;22.58;100.00;101213.09;5041496;28;20176;-74
2022/06/30 08:08:19;;;;;;;3.17;2.40;;;;;;;22.38;100.00;101153.72;5041045;28;20719;-74
2022/06/30 08:10:44;;;;;;;3.10;2.60;;;;;;;22.77;100.00;101227.06;5041951;28;20608;-75
2022/06/30 08:13:10;;;;;;;3.37;2.47;;;;;;;22.30;100.00;101182.41;5040766;28;20220;-74
2022/06/30 08:15:36;;;;;;;4.20;2.57;;;;;;;22.65;100.00;101226.47;5022922;28;20235;-74
2022/06/30 08:18:05;;;;;;;2.80;2.60;;;;;;;22.31;100.00;101175.03;5040829;28;20183;-75
2022/06/30 08:20:31;;;;;;;2.10;1.90;;;;;;;22.59;100.00;101222.91;5041429;28;20208;-74
2022/06/30 08:22:57;;;;;;;2.23;2.00;;;;;;;22.69;100.00;101235.81;5042668;28;20442;-75
2022/06/30 08:25:23;;;;;;;2.70;2.50;;;;;;;22.83;100.00;101231.47;5039912;28;20479;-74
2022/06/30 08:27:49;;;;;;;2.13;1.80;;;;;;;22.44;100.00;101188.16;5040739;28;20180;-75
2022/06/30 08:30:14;;;;;;;1.90;1.80;;;;;;;22.86;100.00;101228.19;5038932;28;20422;-74
2022/06/30 08:32:40;;;;;;;3.03;2.33;;;;;;;22.87;100.00;101234.47;5040539;28;20188;-75
2022/06/30 08:35:06;;;;;;;2.30;2.10;;;;;;;22.56;100.00;101193.38;5043583;28;20320;-75
2022/06/30 08:42:53;;;;;;;3.10;1.93;;;;;;;22.79;100.00;101198.34;5041948;28;21024;-72
2022/06/30 08:45:19;;;;;;;3.50;2.70;;;;;;;22.56;100.00;101142.28;5043871;28;20430;-72
2022/06/30 08:47:48;;;;;;;2.50;2.20;;;;;;;22.55;100.00;101134.34;5040341;28;20191;-72
2022/06/30 08:50:15;;;;;;;2.90;2.70;;;;;;;23.15;100.00;101224.94;5029848;28;20941;-72
2022/06/30 08:52:52;;;;;;;2.60;2.40;;;;;;;22.46;100.00;101145.00;5029685;28;20918;-72
2022/06/30 08:55:28;;;;;;;2.47;2.27;;;;;;;23.02;100.00;101210.69;5027419;28;20453;-72
2022/06/30 08:58:05;;;;;;;2.30;2.10;;;;;;;22.81;100.00;101148.03;5028416;28;20485;-72
2022/06/30 09:00:31;;;;;;;2.40;2.20;;;;;;;22.46;100.00;101084.88;5021789;28;20407;-72
2022/06/30 09:02:56;;;;;;;2.03;1.93;;;;;;;22.88;100.00;101126.69;5028949;28;20415;-72
2022/06/30 09:05:22;;;;;;;3.30;2.70;;;;;;;23.27;100.00;101195.38;5029428;28;20931;-72
2022/06/30 09:07:47;;;;;;;2.50;2.10;;;;;;;22.81;100.00;101131.63;5029034;28;20632;-72
2022/06/30 09:10:13;;;;;;;3.10;2.10;;;;;;;23.13;100.00;101197.84;5028270;28;20255;-72
2022/06/30 09:12:38;;;;;;;2.37;2.10;;;;;;;22.85;100.00;101108.09;5027508;28;20184;-72
2022/06/30 09:15:04;;;;;;;2.70;2.50;;;;;;;23.44;100.00;101226.03;5029885;28;20191;-72
2022/06/30 09:17:30;;;;;;;3.30;2.83;;;;;;;23.55;100.00;101210.41;5028559;28;20196;-72
2022/06/30 09:20:02;;;;;;;2.37;2.17;;;;;;;23.25;100.00;101162.00;5028598;28;20224;-72
2022/06/30 09:22:33;;;;;;;3.30;2.67;;;;;;;23.59;100.00;101203.25;5028669;28;20411;-72
2022/06/30 09:25:09;;;;;;;2.70;2.43;;;;;;;23.63;100.00;101185.16;5027411;28;20466;-72
2022/06/30 09:27:37;;;;;;;2.20;2.03;;;;;;;23.72;100.00;101204.63;5027904;28;20509;-72
2022/06/30 09:30:09;;;;;;;2.57;2.37;;;;;;;23.83;100.00;101199.94;5026967;28;20442;-72
2022/06/30 09:32:53;;;;;;;2.70;2.30;;;;;;;23.77;100.00;101198.31;5027928;28;20419;-72
2022/06/30 09:35:21;;;;;;;2.60;2.23;;;;;;;23.72;100.00;101179.97;5028506;28;20430;-72
2022/06/30 09:38:01;;;;;;;3.87;2.60;;;;;;;23.63;100.00;101170.66;5027308;28;20482;-73
2022/06/30 09:40:29;;;;;;;2.23;2.03;;;;;;;22.86;100.00;101052.34;5025495;28;20469;-72
2022/06/30 09:42:55;;;;;;;1.80;1.70;;;;;;;24.00;100.00;101200.44;5028220;28;20865;-72
2022/06/30 09:45:34;;;;;;;2.53;2.33;;;;;;;24.11;100.00;101209.44;5025629;28;20435;-72
2022/06/30 09:47:59;;;;;;;2.30;2.20;;;;;;;23.99;100.00;101192.50;5027631;28;20258;-72
2022/06/30 09:50:25;;;;;;;2.40;2.17;;;;;;;23.90;100.00;101168.44;5027438;28;20423;-72
2022/06/30 09:53:14;;;;;;;2.50;2.40;;;;;;;24.20;100.00;101199.53;5026753;28;20184;-72
2022/06/30 09:55:42;;;;;;;3.30;2.70;;;;;;;24.04;100.00;101200.69;5025487;28;20208;-72
2022/06/30 09:58:09;;;;;;;2.53;2.33;;;;;;;24.06;100.00;101204.78;5026005;28;20501;-72
2022/06/30 10:00:48;;;;;;;2.37;2.17;;;;;;;24.14;100.00;101206.13;5028095;28;20434;-72
2022/06/30 10:03:16;;;;;;;3.17;2.50;;;;;;;24.14;100.00;101185.03;5028263;28;20430;-72
2022/06/30 10:05:44;;;;;;;2.80;2.60;;;;;;;24.14;100.00;101186.94;5029936;28;20526;-72
2022/06/30 10:08:11;;;;;;;2.80;2.60;;;;;;;24.15;100.00;101174.88;5032549;28;20454;-72
2022/06/30 10:10:37;;;;;;;3.50;3.23;;;;;;;23.54;100.00;101071.84;5026425;28;21069;-72
2022/06/30 10:13:03;;;;;;;2.40;2.20;;;;;;;23.67;100.00;101103.31;5023785;28;20521;-72
2022/06/30 10:15:34;;;;;;;2.30;2.10;;;;;;;24.39;100.00;101196.97;5031710;28;20199;-72
2022/06/30 10:18:01;;;;;;;3.13;2.83;;;;;;;23.10;100.00;101001.41;5024135;28;20482;-72
2022/06/30 10:20:28;;;;;;;2.73;2.27;;;;;;;24.28;100.00;101179.75;5018178;28;20443;-72
2022/06/30 10:22:54;;;;;;;3.23;1.80;;;;;;;24.28;100.00;101160.56;5023515;28;20496;-72
2022/06/30 10:25:20;;;;;;;2.13;2.03;;;;;;;24.32;100.00;101150.66;5025048;28;20451;-72
2022/06/30 10:27:46;;;;;;;2.00;1.90;;;;;;;24.66;100.00;101202.03;5021229;28;20180;-73
2022/06/30 10:30:23;;;;;;;3.33;2.17;;;;;;;24.74;100.00;101195.13;5030718;28;20869;-72
2022/06/30 10:33:26;;;;;;;2.10;2.00;;;;;;;24.76;100.00;101196.50;5028166;28;20469;-72
2022/06/30 10:36:01;;;;;;;2.90;2.70;;;;;;;24.95;100.00;101187.56;5024820;28;20427;-72
2022/06/30 10:38:43;;;;;;;2.03;1.93;;;;;;;24.51;100.00;101170.06;5028854;28;20465;-73
2022/06/30 10:41:14;;;;;;;2.83;2.63;;;;;;;24.63;100.00;101193.56;5024852;28;20442;-73
2022/06/30 10:44:04;;;;;;;3.10;2.63;;;;;;;24.87;100.00;101180.75;5019577;28;20546;-74
2022/06/30 10:46:31;;;;;;;2.80;2.60;;;;;;;24.73;100.00;101185.25;5028418;28;21027;-72
2022/06/30 10:48:57;;;;;;;2.23;2.13;;;;;;;24.78;100.00;101163.28;5020685;28;20982;-72
2022/06/30 10:51:24;;;;;;;2.23;2.13;;;;;;;24.88;100.00;101170.59;5018785;28;20446;-73
2022/06/30 10:53:54;;;;;;;4.40;2.30;;;;;;;24.73;100.00;101166.06;5023162;28;20195;-73
2022/06/30 10:56:22;;;;;;;2.60;2.40;;;;;;;24.55;100.00;101107.22;5015310;28;20468;-73
2022/06/30 10:59:05;;;;;;;3.23;2.63;;;;;;;24.65;100.00;101131.00;5022113;28;20875;-73
2022/06/30 11:01:31;;;;;;;2.67;2.47;;;;;;;25.00;100.00;101174.63;5019041;28;20509;-73
2022/06/30 11:03:57;;;;;;;2.33;2.13;;;;;;;24.98;100.00;101174.09;5019994;28;20450;-73
2022/06/30 11:06:26;;;;;;;3.20;2.90;;;;;;;24.38;100.00;101050.03;5013486;28;20663;-72
2022/06/30 11:08:57;;;;;;;2.10;2.00;;;;;;;24.38;100.00;101062.91;5016191;28;20534;-75
2022/06/30 11:11:40;;;;;;;2.40;2.20;;;;;;;25.21;100.00;101177.22;5024135;28;20492;-75
2022/06/30 11:14:07;;;;;;;2.30;2.10;;;;;;;25.33;100.00;101172.16;5022080;28;20454;-77
2022/06/30 11:16:38;;;;;;;2.03;1.93;;;;;;;25.39;100.00;101157.25;5020706;28;20502;-74
2022/06/30 11:19:12;;;;;;;3.73;2.40;;;;;;;24.20;100.00;100983.00;5022507;28;20471;-74
2022/06/30 11:21:42;;;;;;;3.00;2.80;;;;;;;25.34;100.00;101167.47;5021289;28;20438;-73
2022/06/30 11:24:09;;;;;;;2.40;2.20;;;;;;;24.04;100.00;100926.69;5022128;28;20447;-75
2022/06/30 11:29:23;;;;;;;2.60;2.40;;;;;;;25.57;100.00;101141.94;5021833;28;20465;-73
2022/06/30 11:31:50;;;;;;;2.63;2.43;;;;;;;25.50;100.00;101144.25;5019351;28;20447;-75
2022/06/30 11:34:18;;;;;;;2.27;2.17;;;;;;;25.62;100.00;101136.41;5022506;28;20522;-74
2022/06/30 11:36:45;;;;;;;2.50;2.30;;;;;;;24.90;100.00;101017.50;5022197;28;20951;-74
2022/06/30 11:39:17;;;;;;;3.60;3.10;;;;;;;25.00;100.00;101026.44;5019121;28;20477;-74